sensor_id;sensor_type;location;lat;lon;timestamp;temperature;humidity
62575;DHT22;70119;45.638;11.714;2023-08-12T00:00:29;31.10;46.30
62575;DHT22;70119;45.638;11.714;2023-08-12T00:02:55;31.10;46.30
62575;DHT22;70119;45.638;11.714;2023-08-12T00:05:21;31.00;46.40
62575;DHT22;70119;45.638;11.714;2023-08-12T00:07:48;31.10;46.30
62575;DHT22;70119;45.638;11.714;2023-08-12T00:10:14;31.00;46.30
62575;DHT22;70119;45.638;11.714;2023-08-12T00:12:41;31.10;46.30
62575;DHT22;70119;45.638;11.714;2023-08-12T00:15:08;31.00;46.30
62575;DHT22;70119;45.638;11.714;2023-08-12T00:17:36;31.00;46.30
62575;DHT22;70119;45.638;11.714;2023-08-12T00:20:06;31.00;46.30
62575;DHT22;70119;45.638;11.714;2023-08-12T00:22:33;31.00;46.30
62575;DHT22;70119;45.638;11.714;2023-08-12T00:24:59;31.00;46.30
62575;DHT22;70119;45.638;11.714;2023-08-12T00:27:24;31.00;46.20
62575;DHT22;70119;45.638;11.714;2023-08-12T00:29:50;31.00;46.30
62575;DHT22;70119;45.638;11.714;2023-08-12T00:32:16;31.10;46.30
62575;DHT22;70119;45.638;11.714;2023-08-12T00:34:42;31.00;46.20
62575;DHT22;70119;45.638;11.714;2023-08-12T00:37:08;31.00;46.30
62575;DHT22;70119;45.638;11.714;2023-08-12T00:39:34;31.00;46.20
62575;DHT22;70119;45.638;11.714;2023-08-12T00:42:00;31.00;46.20
62575;DHT22;70119;45.638;11.714;2023-08-12T00:44:25;31.00;46.20
62575;DHT22;70119;45.638;11.714;2023-08-12T00:46:51;31.00;46.20
62575;DHT22;70119;45.638;11.714;2023-08-12T00:49:18;31.00;46.20
62575;DHT22;70119;45.638;11.714;2023-08-12T00:51:44;31.00;46.20
62575;DHT22;70119;45.638;11.714;2023-08-12T00:54:14;31.00;46.20
62575;DHT22;70119;45.638;11.714;2023-08-12T00:56:41;31.00;46.20
62575;DHT22;70119;45.638;11.714;2023-08-12T00:59:08;31.00;46.20
62575;DHT22;70119;45.638;11.714;2023-08-12T01:01:40;31.00;46.20
62575;DHT22;70119;45.638;11.714;2023-08-12T01:04:09;31.00;46.20
62575;DHT22;70119;45.638;11.714;2023-08-12T01:06:35;31.00;46.20
62575;DHT22;70119;45.638;11.714;2023-08-12T01:09:01;31.00;46.10
62575;DHT22;70119;45.638;11.714;2023-08-12T01:17:00;30.90;46.20
62575;DHT22;70119;45.638;11.714;2023-08-12T01:19:35;30.90;46.10
62575;DHT22;70119;45.638;11.714;2023-08-12T01:22:03;30.90;46.10
62575;DHT22;70119;45.638;11.714;2023-08-12T01:24:37;30.90;46.10
62575;DHT22;70119;45.638;11.714;2023-08-12T01:27:05;30.90;46.20
62575;DHT22;70119;45.638;11.714;2023-08-12T01:29:32;30.90;46.10
62575;DHT22;70119;45.638;11.714;2023-08-12T01:34:57;30.90;46.10
62575;DHT22;70119;45.638;11.714;2023-08-12T01:37:27;30.90;46.10
62575;DHT22;70119;45.638;11.714;2023-08-12T01:39:54;30.90;46.10
62575;DHT22;70119;45.638;11.714;2023-08-12T01:42:21;30.90;46.10
62575;DHT22;70119;45.638;11.714;2023-08-12T01:44:48;30.90;46.10
62575;DHT22;70119;45.638;11.714;2023-08-12T01:47:15;30.90;46.10
62575;DHT22;70119;45.638;11.714;2023-08-12T01:49:40;30.90;46.10
62575;DHT22;70119;45.638;11.714;2023-08-12T01:52:06;30.80;46.20
62575;DHT22;70119;45.638;11.714;2023-08-12T01:54:32;30.90;46.10
62575;DHT22;70119;45.638;11.714;2023-08-12T01:57:04;30.90;46.10
62575;DHT22;70119;45.638;11.714;2023-08-12T01:59:34;30.80;46.10
62575;DHT22;70119;45.638;11.714;2023-08-12T02:02:00;30.80;46.10
62575;DHT22;70119;45.638;11.714;2023-08-12T02:04:27;30.80;46.10
62575;DHT22;70119;45.638;11.714;2023-08-12T02:06:54;30.80;46.10
62575;DHT22;70119;45.638;11.714;2023-08-12T02:09:20;30.80;46.10
62575;DHT22;70119;45.638;11.714;2023-08-12T02:11:46;30.80;46.10
62575;DHT22;70119;45.638;11.714;2023-08-12T02:14:12;30.80;46.10
62575;DHT22;70119;45.638;11.714;2023-08-12T02:16:38;30.80;46.00
62575;DHT22;70119;45.638;11.714;2023-08-12T02:19:04;30.80;46.00
62575;DHT22;70119;45.638;11.714;2023-08-12T02:21:29;30.90;46.00
62575;DHT22;70119;45.638;11.714;2023-08-12T02:23:55;30.90;46.00
62575;DHT22;70119;45.638;11.714;2023-08-12T02:26:21;30.80;46.00
62575;DHT22;70119;45.638;11.714;2023-08-12T02:28:47;30.90;46.00
62575;DHT22;70119;45.638;11.714;2023-08-12T02:31:13;30.80;45.90
62575;DHT22;70119;45.638;11.714;2023-08-12T02:33:39;30.90;45.90
62575;DHT22;70119;45.638;11.714;2023-08-12T02:36:05;30.80;45.90
62575;DHT22;70119;45.638;11.714;2023-08-12T02:38:30;30.90;45.80
62575;DHT22;70119;45.638;11.714;2023-08-12T02:40:56;30.80;45.90
62575;DHT22;70119;45.638;11.714;2023-08-12T02:43:22;30.80;45.90
62575;DHT22;70119;45.638;11.714;2023-08-12T02:45:48;30.80;45.90
62575;DHT22;70119;45.638;11.714;2023-08-12T02:48:14;30.80;45.90
62575;DHT22;70119;45.638;11.714;2023-08-12T02:50:40;30.80;45.80
62575;DHT22;70119;45.638;11.714;2023-08-12T02:53:06;30.80;45.80
62575;DHT22;70119;45.638;11.714;2023-08-12T02:55:32;30.80;45.80
62575;DHT22;70119;45.638;11.714;2023-08-12T02:58:01;30.80;45.80
62575;DHT22;70119;45.638;11.714;2023-08-12T03:00:27;30.80;45.80
62575;DHT22;70119;45.638;11.714;2023-08-12T03:02:54;30.80;45.70
62575;DHT22;70119;45.638;11.714;2023-08-12T03:05:21;30.80;45.70
62575;DHT22;70119;45.638;11.714;2023-08-12T03:07:46;30.80;45.80
62575;DHT22;70119;45.638;11.714;2023-08-12T03:10:12;30.80;45.70
62575;DHT22;70119;45.638;11.714;2023-08-12T03:12:38;30.80;45.70
62575;DHT22;70119;45.638;11.714;2023-08-12T03:15:07;30.80;45.70
62575;DHT22;70119;45.638;11.714;2023-08-12T03:17:33;30.80;45.70
62575;DHT22;70119;45.638;11.714;2023-08-12T03:19:59;30.70;45.70
62575;DHT22;70119;45.638;11.714;2023-08-12T03:22:27;30.70;45.70
62575;DHT22;70119;45.638;11.714;2023-08-12T03:24:53;30.80;45.70
62575;DHT22;70119;45.638;11.714;2023-08-12T03:27:19;30.70;45.70
62575;DHT22;70119;45.638;11.714;2023-08-12T03:29:45;30.70;45.70
62575;DHT22;70119;45.638;11.714;2023-08-12T03:32:11;30.70;45.70
62575;DHT22;70119;45.638;11.714;2023-08-12T03:34:36;30.70;45.70
62575;DHT22;70119;45.638;11.714;2023-08-12T03:37:02;30.70;45.60
62575;DHT22;70119;45.638;11.714;2023-08-12T03:39:28;30.70;45.70
62575;DHT22;70119;45.638;11.714;2023-08-12T03:41:54;30.70;45.60
62575;DHT22;70119;45.638;11.714;2023-08-12T03:44:20;30.80;45.60
62575;DHT22;70119;45.638;11.714;2023-08-12T03:46:46;30.70;45.60
62575;DHT22;70119;45.638;11.714;2023-08-12T03:49:12;30.70;45.60
62575;DHT22;70119;45.638;11.714;2023-08-12T03:51:37;30.70;45.60
62575;DHT22;70119;45.638;11.714;2023-08-12T03:54:03;30.70;45.60
62575;DHT22;70119;45.638;11.714;2023-08-12T03:56:29;30.70;45.60
62575;DHT22;70119;45.638;11.714;2023-08-12T03:58:55;30.70;45.60
62575;DHT22;70119;45.638;11.714;2023-08-12T04:01:21;30.70;45.60
62575;DHT22;70119;45.638;11.714;2023-08-12T04:03:47;30.70;45.60
62575;DHT22;70119;45.638;11.714;2023-08-12T04:06:13;30.70;45.60
62575;DHT22;70119;45.638;11.714;2023-08-12T04:08:39;30.70;45.60
62575;DHT22;70119;45.638;11.714;2023-08-12T04:11:05;30.60;45.60
62575;DHT22;70119;45.638;11.714;2023-08-12T04:13:31;30.60;45.60
62575;DHT22;70119;45.638;11.714;2023-08-12T04:15:57;30.60;45.60
62575;DHT22;70119;45.638;11.714;2023-08-12T04:18:23;30.60;45.60
62575;DHT22;70119;45.638;11.714;2023-08-12T04:20:49;30.60;45.60
62575;DHT22;70119;45.638;11.714;2023-08-12T04:23:16;30.60;45.60
62575;DHT22;70119;45.638;11.714;2023-08-12T04:25:46;30.60;45.50
62575;DHT22;70119;45.638;11.714;2023-08-12T04:28:13;30.60;45.50
62575;DHT22;70119;45.638;11.714;2023-08-12T04:30:49;30.60;45.50
62575;DHT22;70119;45.638;11.714;2023-08-12T04:33:18;30.60;45.50
62575;DHT22;70119;45.638;11.714;2023-08-12T04:35:47;30.60;45.50
62575;DHT22;70119;45.638;11.714;2023-08-12T04:38:13;30.60;45.50
62575;DHT22;70119;45.638;11.714;2023-08-12T04:40:40;30.60;45.50
62575;DHT22;70119;45.638;11.714;2023-08-12T04:43:07;30.60;45.50
62575;DHT22;70119;45.638;11.714;2023-08-12T04:45:33;30.60;45.50
62575;DHT22;70119;45.638;11.714;2023-08-12T04:47:58;30.60;45.50
62575;DHT22;70119;45.638;11.714;2023-08-12T04:50:25;30.60;45.50
62575;DHT22;70119;45.638;11.714;2023-08-12T04:52:51;30.60;45.40
62575;DHT22;70119;45.638;11.714;2023-08-12T04:55:17;30.60;45.50
62575;DHT22;70119;45.638;11.714;2023-08-12T04:57:43;30.60;45.40
62575;DHT22;70119;45.638;11.714;2023-08-12T05:00:09;30.60;45.40
62575;DHT22;70119;45.638;11.714;2023-08-12T05:02:35;30.60;45.40
62575;DHT22;70119;45.638;11.714;2023-08-12T05:05:01;30.60;45.40
62575;DHT22;70119;45.638;11.714;2023-08-12T05:07:27;30.70;45.30
62575;DHT22;70119;45.638;11.714;2023-08-12T05:09:53;30.70;45.30
62575;DHT22;70119;45.638;11.714;2023-08-12T05:12:19;30.60;45.30
62575;DHT22;70119;45.638;11.714;2023-08-12T05:14:45;30.60;45.40
62575;DHT22;70119;45.638;11.714;2023-08-12T05:17:11;30.60;45.50
62575;DHT22;70119;45.638;11.714;2023-08-12T05:19:37;30.60;45.50
62575;DHT22;70119;45.638;11.714;2023-08-12T05:22:03;30.60;45.60
62575;DHT22;70119;45.638;11.714;2023-08-12T05:24:28;30.70;45.50
62575;DHT22;70119;45.638;11.714;2023-08-12T05:26:54;30.70;45.40
62575;DHT22;70119;45.638;11.714;2023-08-12T05:29:20;30.70;45.40
62575;DHT22;70119;45.638;11.714;2023-08-12T05:31:46;30.70;45.30
62575;DHT22;70119;45.638;11.714;2023-08-12T05:34:12;30.80;45.40
62575;DHT22;70119;45.638;11.714;2023-08-12T05:36:38;30.80;45.30
62575;DHT22;70119;45.638;11.714;2023-08-12T05:39:04;30.80;45.40
62575;DHT22;70119;45.638;11.714;2023-08-12T05:41:30;30.80;45.40
62575;DHT22;70119;45.638;11.714;2023-08-12T05:43:55;30.80;45.40
62575;DHT22;70119;45.638;11.714;2023-08-12T05:46:21;30.80;45.50
62575;DHT22;70119;45.638;11.714;2023-08-12T05:48:47;30.90;45.40
62575;DHT22;70119;45.638;11.714;2023-08-12T05:51:13;30.90;45.50
62575;DHT22;70119;45.638;11.714;2023-08-12T05:53:39;30.90;45.50
62575;DHT22;70119;45.638;11.714;2023-08-12T05:56:05;30.90;45.50
62575;DHT22;70119;45.638;11.714;2023-08-12T05:58:30;30.90;45.50
62575;DHT22;70119;45.638;11.714;2023-08-12T06:00:56;30.90;45.50
62575;DHT22;70119;45.638;11.714;2023-08-12T06:03:22;30.90;45.50
62575;DHT22;70119;45.638;11.714;2023-08-12T06:05:48;30.90;45.50
62575;DHT22;70119;45.638;11.714;2023-08-12T06:08:15;30.90;45.60
62575;DHT22;70119;45.638;11.714;2023-08-12T06:10:41;30.90;45.60
62575;DHT22;70119;45.638;11.714;2023-08-12T06:13:07;30.90;45.60
62575;DHT22;70119;45.638;11.714;2023-08-12T06:15:33;31.00;45.60
62575;DHT22;70119;45.638;11.714;2023-08-12T06:18:00;30.90;45.70
62575;DHT22;70119;45.638;11.714;2023-08-12T06:20:26;30.90;45.70
62575;DHT22;70119;45.638;11.714;2023-08-12T06:22:52;31.00;45.70
62575;DHT22;70119;45.638;11.714;2023-08-12T06:25:19;31.00;45.70
62575;DHT22;70119;45.638;11.714;2023-08-12T06:27:45;31.00;45.70
62575;DHT22;70119;45.638;11.714;2023-08-12T06:30:12;31.00;45.70
62575;DHT22;70119;45.638;11.714;2023-08-12T06:32:38;31.00;45.70
62575;DHT22;70119;45.638;11.714;2023-08-12T06:35:04;31.00;45.70
62575;DHT22;70119;45.638;11.714;2023-08-12T06:37:31;31.10;45.70
62575;DHT22;70119;45.638;11.714;2023-08-12T06:39:56;31.10;45.70
62575;DHT22;70119;45.638;11.714;2023-08-12T06:42:22;31.10;45.70
62575;DHT22;70119;45.638;11.714;2023-08-12T06:44:56;31.10;45.80
62575;DHT22;70119;45.638;11.714;2023-08-12T06:47:22;31.10;45.80
62575;DHT22;70119;45.638;11.714;2023-08-12T06:49:48;31.10;45.70
62575;DHT22;70119;45.638;11.714;2023-08-12T06:52:14;31.10;45.70
62575;DHT22;70119;45.638;11.714;2023-08-12T06:54:45;31.10;45.60
62575;DHT22;70119;45.638;11.714;2023-08-12T06:57:15;31.10;45.60
62575;DHT22;70119;45.638;11.714;2023-08-12T06:59:40;31.10;45.60
62575;DHT22;70119;45.638;11.714;2023-08-12T07:02:07;31.10;45.50
62575;DHT22;70119;45.638;11.714;2023-08-12T07:04:33;31.20;45.50
62575;DHT22;70119;45.638;11.714;2023-08-12T07:06:59;31.20;45.50
62575;DHT22;70119;45.638;11.714;2023-08-12T07:09:25;31.20;45.40
62575;DHT22;70119;45.638;11.714;2023-08-12T07:11:51;31.20;45.30
62575;DHT22;70119;45.638;11.714;2023-08-12T07:14:17;31.20;45.30
62575;DHT22;70119;45.638;11.714;2023-08-12T07:16:43;31.20;45.20
62575;DHT22;70119;45.638;11.714;2023-08-12T07:19:09;31.20;45.20
62575;DHT22;70119;45.638;11.714;2023-08-12T07:21:35;31.20;45.10
62575;DHT22;70119;45.638;11.714;2023-08-12T07:24:00;31.30;45.10
62575;DHT22;70119;45.638;11.714;2023-08-12T07:26:26;31.30;45.10
62575;DHT22;70119;45.638;11.714;2023-08-12T07:28:52;31.30;45.10
62575;DHT22;70119;45.638;11.714;2023-08-12T07:31:18;31.30;45.10
62575;DHT22;70119;45.638;11.714;2023-08-12T07:33:44;31.30;45.10
62575;DHT22;70119;45.638;11.714;2023-08-12T07:36:10;31.30;45.10
62575;DHT22;70119;45.638;11.714;2023-08-12T07:38:36;31.40;45.00
62575;DHT22;70119;45.638;11.714;2023-08-12T07:41:02;31.40;45.10
62575;DHT22;70119;45.638;11.714;2023-08-12T07:43:27;31.40;45.10
62575;DHT22;70119;45.638;11.714;2023-08-12T07:45:54;31.40;45.10
62575;DHT22;70119;45.638;11.714;2023-08-12T07:48:20;31.40;45.10
62575;DHT22;70119;45.638;11.714;2023-08-12T07:50:47;31.40;45.10
62575;DHT22;70119;45.638;11.714;2023-08-12T07:53:15;31.40;45.10
62575;DHT22;70119;45.638;11.714;2023-08-12T07:55:42;31.40;45.10
62575;DHT22;70119;45.638;11.714;2023-08-12T07:58:08;31.40;45.20
62575;DHT22;70119;45.638;11.714;2023-08-12T08:00:34;31.50;45.30
62575;DHT22;70119;45.638;11.714;2023-08-12T08:03:00;31.40;45.20
62575;DHT22;70119;45.638;11.714;2023-08-12T08:05:26;31.40;45.20
62575;DHT22;70119;45.638;11.714;2023-08-12T08:07:51;31.50;45.10
62575;DHT22;70119;45.638;11.714;2023-08-12T08:10:17;31.50;45.10
62575;DHT22;70119;45.638;11.714;2023-08-12T08:12:43;31.50;45.10
62575;DHT22;70119;45.638;11.714;2023-08-12T08:15:09;31.50;45.00
62575;DHT22;70119;45.638;11.714;2023-08-12T08:17:35;31.50;45.00
62575;DHT22;70119;45.638;11.714;2023-08-12T08:20:01;31.50;45.00
62575;DHT22;70119;45.638;11.714;2023-08-12T08:22:28;31.50;45.10
62575;DHT22;70119;45.638;11.714;2023-08-12T08:24:54;31.50;45.30
62575;DHT22;70119;45.638;11.714;2023-08-12T08:27:20;31.50;45.40
62575;DHT22;70119;45.638;11.714;2023-08-12T08:29:46;31.50;45.50
62575;DHT22;70119;45.638;11.714;2023-08-12T08:32:12;31.50;45.30
62575;DHT22;70119;45.638;11.714;2023-08-12T08:34:38;31.50;45.20
62575;DHT22;70119;45.638;11.714;2023-08-12T08:37:04;31.50;45.20
62575;DHT22;70119;45.638;11.714;2023-08-12T08:39:30;31.50;45.10
62575;DHT22;70119;45.638;11.714;2023-08-12T08:41:56;31.50;45.20
62575;DHT22;70119;45.638;11.714;2023-08-12T08:44:24;31.50;45.10
62575;DHT22;70119;45.638;11.714;2023-08-12T08:46:54;31.50;45.10
62575;DHT22;70119;45.638;11.714;2023-08-12T08:49:20;31.50;45.10
62575;DHT22;70119;45.638;11.714;2023-08-12T08:51:47;31.50;45.10
62575;DHT22;70119;45.638;11.714;2023-08-12T08:54:14;31.60;45.00
62575;DHT22;70119;45.638;11.714;2023-08-12T08:56:41;31.60;45.00
62575;DHT22;70119;45.638;11.714;2023-08-12T08:59:07;31.60;45.00
62575;DHT22;70119;45.638;11.714;2023-08-12T09:01:36;31.50;44.90
62575;DHT22;70119;45.638;11.714;2023-08-12T09:04:03;31.60;44.90
62575;DHT22;70119;45.638;11.714;2023-08-12T09:06:29;31.60;44.90
62575;DHT22;70119;45.638;11.714;2023-08-12T09:08:56;31.60;44.90
62575;DHT22;70119;45.638;11.714;2023-08-12T09:11:23;31.60;44.90
62575;DHT22;70119;45.638;11.714;2023-08-12T09:13:49;31.60;44.90
62575;DHT22;70119;45.638;11.714;2023-08-12T09:16:15;31.60;44.90
62575;DHT22;70119;45.638;11.714;2023-08-12T09:18:44;31.60;44.80
62575;DHT22;70119;45.638;11.714;2023-08-12T09:21:10;31.60;44.90
62575;DHT22;70119;45.638;11.714;2023-08-12T09:23:40;31.60;45.00
62575;DHT22;70119;45.638;11.714;2023-08-12T09:26:14;31.60;45.10
62575;DHT22;70119;45.638;11.714;2023-08-12T09:28:42;31.60;45.10
62575;DHT22;70119;45.638;11.714;2023-08-12T09:31:08;31.60;45.20
62575;DHT22;70119;45.638;11.714;2023-08-12T09:33:39;31.60;45.10
62575;DHT22;70119;45.638;11.714;2023-08-12T09:36:05;31.60;45.00
62575;DHT22;70119;45.638;11.714;2023-08-12T09:38:31;31.60;45.00
62575;DHT22;70119;45.638;11.714;2023-08-12T09:40:57;31.60;45.10
62575;DHT22;70119;45.638;11.714;2023-08-12T09:43:28;31.60;45.00
62575;DHT22;70119;45.638;11.714;2023-08-12T09:45:56;31.60;45.00
62575;DHT22;70119;45.638;11.714;2023-08-12T09:48:25;31.60;45.10
62575;DHT22;70119;45.638;11.714;2023-08-12T09:50:52;31.60;45.00
62575;DHT22;70119;45.638;11.714;2023-08-12T09:53:21;31.60;44.90
62575;DHT22;70119;45.638;11.714;2023-08-12T09:55:48;31.60;45.00
62575;DHT22;70119;45.638;11.714;2023-08-12T09:58:17;31.60;45.30
62575;DHT22;70119;45.638;11.714;2023-08-12T10:00:44;31.60;45.40
62575;DHT22;70119;45.638;11.714;2023-08-12T10:03:11;31.60;45.40
62575;DHT22;70119;45.638;11.714;2023-08-12T10:05:42;31.60;45.50
62575;DHT22;70119;45.638;11.714;2023-08-12T10:08:08;31.60;45.40
62575;DHT22;70119;45.638;11.714;2023-08-12T10:10:36;31.60;45.30
62575;DHT22;70119;45.638;11.714;2023-08-12T10:13:02;31.60;45.20
62575;DHT22;70119;45.638;11.714;2023-08-12T10:15:30;31.60;45.20
62575;DHT22;70119;45.638;11.714;2023-08-12T10:17:56;31.60;45.20
62575;DHT22;70119;45.638;11.714;2023-08-12T10:20:24;31.60;45.20
62575;DHT22;70119;45.638;11.714;2023-08-12T10:22:51;31.60;45.30
62575;DHT22;70119;45.638;11.714;2023-08-12T10:25:20;31.60;45.30
62575;DHT22;70119;45.638;11.714;2023-08-12T10:27:49;31.60;45.30
62575;DHT22;70119;45.638;11.714;2023-08-12T10:30:16;31.60;45.40
62575;DHT22;70119;45.638;11.714;2023-08-12T10:32:42;31.60;45.40
62575;DHT22;70119;45.638;11.714;2023-08-12T10:35:09;31.60;45.40
62575;DHT22;70119;45.638;11.714;2023-08-12T10:37:35;31.60;45.50
62575;DHT22;70119;45.638;11.714;2023-08-12T10:40:05;31.60;45.60
62575;DHT22;70119;45.638;11.714;2023-08-12T10:42:46;31.70;45.60
62575;DHT22;70119;45.638;11.714;2023-08-12T10:45:15;31.70;45.50
62575;DHT22;70119;45.638;11.714;2023-08-12T10:47:43;31.70;45.50
62575;DHT22;70119;45.638;11.714;2023-08-12T10:50:23;31.70;45.50
62575;DHT22;70119;45.638;11.714;2023-08-12T10:52:54;31.70;45.50
62575;DHT22;70119;45.638;11.714;2023-08-12T10:55:21;31.70;45.50
62575;DHT22;70119;45.638;11.714;2023-08-12T10:57:48;31.70;45.40
62575;DHT22;70119;45.638;11.714;2023-08-12T11:00:16;31.60;45.40
62575;DHT22;70119;45.638;11.714;2023-08-12T11:02:46;31.70;45.40
62575;DHT22;70119;45.638;11.714;2023-08-12T11:05:14;31.70;45.40
62575;DHT22;70119;45.638;11.714;2023-08-12T11:07:44;31.70;45.40
62575;DHT22;70119;45.638;11.714;2023-08-12T11:10:19;31.70;45.40
62575;DHT22;70119;45.638;11.714;2023-08-12T11:15:18;31.70;45.60
62575;DHT22;70119;45.638;11.714;2023-08-12T11:17:46;31.70;45.60
62575;DHT22;70119;45.638;11.714;2023-08-12T11:20:13;31.70;45.40
62575;DHT22;70119;45.638;11.714;2023-08-12T11:22:41;31.70;45.70
62575;DHT22;70119;45.638;11.714;2023-08-12T11:25:09;31.70;45.80
62575;DHT22;70119;45.638;11.714;2023-08-12T11:27:43;31.70;45.60
62575;DHT22;70119;45.638;11.714;2023-08-12T11:30:11;31.70;45.70
62575;DHT22;70119;45.638;11.714;2023-08-12T11:32:40;31.70;45.60
62575;DHT22;70119;45.638;11.714;2023-08-12T11:35:08;31.70;45.70
62575;DHT22;70119;45.638;11.714;2023-08-12T11:37:38;31.80;45.70
62575;DHT22;70119;45.638;11.714;2023-08-12T11:40:06;31.80;45.60
62575;DHT22;70119;45.638;11.714;2023-08-12T11:42:38;31.70;45.80
62575;DHT22;70119;45.638;11.714;2023-08-12T11:45:05;31.80;45.90
62575;DHT22;70119;45.638;11.714;2023-08-12T11:47:36;31.70;45.60
62575;DHT22;70119;45.638;11.714;2023-08-12T11:50:03;31.70;45.40
62575;DHT22;70119;45.638;11.714;2023-08-12T11:52:29;31.70;45.50
62575;DHT22;70119;45.638;11.714;2023-08-12T11:54:56;31.70;45.50
62575;DHT22;70119;45.638;11.714;2023-08-12T11:57:23;31.70;45.50
62575;DHT22;70119;45.638;11.714;2023-08-12T11:59:50;31.70;45.50
62575;DHT22;70119;45.638;11.714;2023-08-12T12:02:15;31.70;45.40
62575;DHT22;70119;45.638;11.714;2023-08-12T12:04:42;31.70;45.40
62575;DHT22;70119;45.638;11.714;2023-08-12T12:07:25;31.70;45.40
62575;DHT22;70119;45.638;11.714;2023-08-12T12:09:53;31.70;45.30
62575;DHT22;70119;45.638;11.714;2023-08-12T12:12:23;31.70;45.40
62575;DHT22;70119;45.638;11.714;2023-08-12T12:14:52;31.70;45.30
62575;DHT22;70119;45.638;11.714;2023-08-12T12:17:22;31.70;45.30
62575;DHT22;70119;45.638;11.714;2023-08-12T12:19:59;31.70;45.40
62575;DHT22;70119;45.638;11.714;2023-08-12T12:22:30;31.60;45.30
62575;DHT22;70119;45.638;11.714;2023-08-12T12:25:10;31.70;45.30
62575;DHT22;70119;45.638;11.714;2023-08-12T12:27:38;31.70;45.30
62575;DHT22;70119;45.638;11.714;2023-08-12T12:30:08;31.70;45.30
62575;DHT22;70119;45.638;11.714;2023-08-12T12:32:35;31.70;45.40
62575;DHT22;70119;45.638;11.714;2023-08-12T12:35:01;31.70;45.30
62575;DHT22;70119;45.638;11.714;2023-08-12T12:37:27;31.70;45.30
62575;DHT22;70119;45.638;11.714;2023-08-12T12:39:53;31.70;45.30
62575;DHT22;70119;45.638;11.714;2023-08-12T12:42:19;31.70;45.40
62575;DHT22;70119;45.638;11.714;2023-08-12T12:44:45;31.70;45.30
62575;DHT22;70119;45.638;11.714;2023-08-12T12:47:11;31.70;45.20
62575;DHT22;70119;45.638;11.714;2023-08-12T12:49:38;31.70;45.00
62575;DHT22;70119;45.638;11.714;2023-08-12T12:52:05;31.70;44.80
62575;DHT22;70119;45.638;11.714;2023-08-12T12:54:30;31.60;44.70
62575;DHT22;70119;45.638;11.714;2023-08-12T12:56:56;31.60;44.70
62575;DHT22;70119;45.638;11.714;2023-08-12T12:59:22;31.60;44.70
62575;DHT22;70119;45.638;11.714;2023-08-12T13:01:48;31.50;44.70
62575;DHT22;70119;45.638;11.714;2023-08-12T13:04:14;31.50;44.60
62575;DHT22;70119;45.638;11.714;2023-08-12T13:06:40;31.50;44.50
62575;DHT22;70119;45.638;11.714;2023-08-12T13:09:06;31.50;44.30
62575;DHT22;70119;45.638;11.714;2023-08-12T13:11:33;31.40;44.20
62575;DHT22;70119;45.638;11.714;2023-08-12T13:14:00;31.40;44.10
62575;DHT22;70119;45.638;11.714;2023-08-12T13:16:26;31.40;44.10
62575;DHT22;70119;45.638;11.714;2023-08-12T13:18:52;31.40;44.00
62575;DHT22;70119;45.638;11.714;2023-08-12T13:21:18;31.30;43.90
62575;DHT22;70119;45.638;11.714;2023-08-12T13:23:44;31.40;43.90
62575;DHT22;70119;45.638;11.714;2023-08-12T13:26:10;31.30;43.80
62575;DHT22;70119;45.638;11.714;2023-08-12T13:28:36;31.30;43.60
62575;DHT22;70119;45.638;11.714;2023-08-12T13:31:02;31.30;43.60
62575;DHT22;70119;45.638;11.714;2023-08-12T13:33:27;31.30;43.60
62575;DHT22;70119;45.638;11.714;2023-08-12T13:35:54;31.30;43.60
62575;DHT22;70119;45.638;11.714;2023-08-12T13:38:19;31.30;43.50
62575;DHT22;70119;45.638;11.714;2023-08-12T13:40:46;31.30;43.50
62575;DHT22;70119;45.638;11.714;2023-08-12T13:43:11;31.30;43.40
62575;DHT22;70119;45.638;11.714;2023-08-12T13:45:37;31.20;43.40
62575;DHT22;70119;45.638;11.714;2023-08-12T13:48:03;31.30;43.40
62575;DHT22;70119;45.638;11.714;2023-08-12T13:50:30;31.30;43.40
62575;DHT22;70119;45.638;11.714;2023-08-12T13:52:58;31.30;43.40
62575;DHT22;70119;45.638;11.714;2023-08-12T13:55:25;31.20;43.40
62575;DHT22;70119;45.638;11.714;2023-08-12T13:57:51;31.20;43.40
62575;DHT22;70119;45.638;11.714;2023-08-12T14:00:18;31.20;43.40
62575;DHT22;70119;45.638;11.714;2023-08-12T14:02:44;31.20;43.30
62575;DHT22;70119;45.638;11.714;2023-08-12T14:05:10;31.20;43.30
62575;DHT22;70119;45.638;11.714;2023-08-12T14:07:36;31.20;43.20
62575;DHT22;70119;45.638;11.714;2023-08-12T14:10:04;31.20;43.20
62575;DHT22;70119;45.638;11.714;2023-08-12T14:12:30;31.20;43.10
62575;DHT22;70119;45.638;11.714;2023-08-12T14:14:56;31.10;43.10
62575;DHT22;70119;45.638;11.714;2023-08-12T14:17:22;31.10;43.20
62575;DHT22;70119;45.638;11.714;2023-08-12T14:19:50;31.10;43.20
62575;DHT22;70119;45.638;11.714;2023-08-12T14:22:25;31.10;43.10
62575;DHT22;70119;45.638;11.714;2023-08-12T14:24:51;31.10;43.10
62575;DHT22;70119;45.638;11.714;2023-08-12T14:27:17;31.10;43.10
62575;DHT22;70119;45.638;11.714;2023-08-12T14:29:44;31.10;43.10
62575;DHT22;70119;45.638;11.714;2023-08-12T14:32:10;31.10;43.10
62575;DHT22;70119;45.638;11.714;2023-08-12T14:34:36;31.10;43.00
62575;DHT22;70119;45.638;11.714;2023-08-12T14:37:03;31.10;43.00
62575;DHT22;70119;45.638;11.714;2023-08-12T14:39:29;31.10;43.00
62575;DHT22;70119;45.638;11.714;2023-08-12T14:41:55;31.10;43.00
62575;DHT22;70119;45.638;11.714;2023-08-12T14:44:20;31.10;42.90
62575;DHT22;70119;45.638;11.714;2023-08-12T14:46:47;31.10;42.90
62575;DHT22;70119;45.638;11.714;2023-08-12T14:49:13;31.10;42.90
62575;DHT22;70119;45.638;11.714;2023-08-12T14:51:39;31.10;42.90
62575;DHT22;70119;45.638;11.714;2023-08-12T14:54:05;31.10;42.80
62575;DHT22;70119;45.638;11.714;2023-08-12T14:56:31;31.00;42.90
62575;DHT22;70119;45.638;11.714;2023-08-12T14:58:57;31.10;42.90
62575;DHT22;70119;45.638;11.714;2023-08-12T15:01:23;31.10;43.00
62575;DHT22;70119;45.638;11.714;2023-08-12T15:03:50;31.10;43.10
62575;DHT22;70119;45.638;11.714;2023-08-12T15:06:16;31.10;43.00
62575;DHT22;70119;45.638;11.714;2023-08-12T15:08:42;31.10;43.00
62575;DHT22;70119;45.638;11.714;2023-08-12T15:11:08;31.10;43.00
62575;DHT22;70119;45.638;11.714;2023-08-12T15:13:42;31.10;43.00
62575;DHT22;70119;45.638;11.714;2023-08-12T15:16:21;31.10;43.00
62575;DHT22;70119;45.638;11.714;2023-08-12T15:18:47;31.10;43.00
62575;DHT22;70119;45.638;11.714;2023-08-12T15:21:13;31.10;43.00
62575;DHT22;70119;45.638;11.714;2023-08-12T15:23:39;31.10;43.00